Time;durP1;ratioP1;P1;durP2;ratioP2;P2;SDS_P1;SDS_P2;PMS_P1;PMS_P2;Temp;Humidity;BMP_temperature;BMP_pressure;BME280_temperature;BME280_humidity;BME280_pressure;Samples;Min_cycle;Max_cycle;Signal;HPM_P1;HPM_P2
2022/09/06 00:00:59;;;;;;;8.50;4.88;;;15.50;99.90;;;;;;5027905;28;20824;-81
2022/09/06 00:03:26;;;;;;;9.48;5.70;;;15.40;99.90;;;;;;5028093;28;20037;-81
2022/09/06 00:05:52;;;;;;;9.15;5.03;;;15.30;99.90;;;;;;5028003;28;20038;-81
2022/09/06 00:08:18;;;;;;;9.43;5.35;;;15.30;99.90;;;;;;5025933;28;20549;-81
2022/09/06 00:10:43;;;;;;;9.93;4.57;;;15.20;99.90;;;;;;5028716;28;20025;-81
2022/09/06 00:13:10;;;;;;;8.38;5.15;;;15.20;99.90;;;;;;5028107;28;20475;-81
2022/09/06 00:15:36;;;;;;;14.57;5.30;;;15.10;99.90;;;;;;5028432;28;20083;-81
2022/09/06 00:18:03;;;;;;;6.70;5.80;;;15.10;99.90;;;;;;5028427;28;20096;-81
2022/09/06 00:20:30;;;;;;;12.18;6.07;;;15.10;99.90;;;;;;5027705;28;20029;-81
2022/09/06 00:23:05;;;;;;;7.07;5.05;;;15.10;99.90;;;;;;5028299;28;20076;-81
2022/09/06 00:25:32;;;;;;;6.93;5.70;;;15.00;99.90;;;;;;5038782;28;20060;-81
2022/09/06 00:27:59;;;;;;;7.70;5.68;;;15.00;99.90;;;;;;5029229;28;20068;-81
2022/09/06 00:30:26;;;;;;;7.97;5.55;;;15.00;99.90;;;;;;5028208;28;20025;-80
2022/09/06 00:32:53;;;;;;;11.55;5.70;;;14.90;99.90;;;;;;5028424;28;20022;-81
2022/09/06 00:35:20;;;;;;;8.10;5.82;;;14.90;99.90;;;;;;5027986;28;20033;-81
2022/09/06 00:37:46;;;;;;;8.20;5.63;;;14.90;99.90;;;;;;5028012;28;20032;-81
2022/09/06 00:40:13;;;;;;;8.00;5.78;;;14.90;99.90;;;;;;5027246;28;20639;-80
2022/09/06 00:42:39;;;;;;;6.55;5.60;;;14.80;99.90;;;;;;5027610;28;20025;-80
2022/09/06 00:45:06;;;;;;;8.70;6.22;;;14.80;99.90;;;;;;5028048;28;20505;-80
2022/09/06 00:47:37;;;;;;;7.55;5.30;;;14.80;99.90;;;;;;5029279;28;20036;-80
2022/09/06 00:50:04;;;;;;;9.18;5.82;;;14.70;99.90;;;;;;5031382;28;20025;-81
2022/09/06 00:52:31;;;;;;;8.55;5.70;;;14.70;99.90;;;;;;5031698;28;20017;-80
2022/09/06 00:54:57;;;;;;;9.75;5.78;;;14.70;99.90;;;;;;5031551;28;20056;-80
2022/09/06 00:57:26;;;;;;;8.60;5.28;;;14.70;99.90;;;;;;5030634;28;20578;-80
2022/09/06 00:59:53;;;;;;;8.65;6.05;;;14.70;99.90;;;;;;5029978;28;20025;-80
2022/09/06 01:02:19;;;;;;;6.78;5.35;;;14.70;99.90;;;;;;5029292;28;20482;-80
2022/09/06 01:04:47;;;;;;;8.45;5.45;;;14.70;99.90;;;;;;5028846;28;20034;-80
2022/09/06 01:07:31;;;;;;;10.30;5.43;;;14.70;99.90;;;;;;5028924;28;20485;-81
2022/09/06 01:10:13;;;;;;;6.78;4.88;;;14.60;99.90;;;;;;5027790;28;20034;-80
2022/09/06 01:12:58;;;;;;;7.63;4.97;;;14.60;99.90;;;;;;5017228;28;20022;-80
2022/09/06 01:15:26;;;;;;;6.68;4.93;;;14.60;99.90;;;;;;5029228;28;20030;-80
2022/09/06 01:18:15;;;;;;;10.82;5.72;;;14.50;99.90;;;;;;5029278;28;20029;-81
2022/09/06 01:20:55;;;;;;;8.80;5.38;;;14.50;99.90;;;;;;5029085;28;20030;-81
2022/09/06 01:23:20;;;;;;;7.57;4.80;;;14.50;99.90;;;;;;5028716;28;20026;-80
2022/09/06 01:26:04;;;;;;;6.63;5.00;;;14.40;99.90;;;;;;5028480;28;20052;-80
2022/09/06 01:28:36;;;;;;;9.25;5.30;;;14.40;99.90;;;;;;5028956;28;20024;-80
2022/09/06 01:31:32;;;;;;;6.22;5.05;;;14.40;99.90;;;;;;5028004;28;20030;-80
2022/09/06 01:34:06;;;;;;;;;;;14.40;99.90;;;;;;5028379;28;20542;-81
2022/09/06 01:36:43;;;;;;;6.93;5.28;;;14.30;99.90;;;;;;5028482;28;20371;-81
2022/09/06 01:39:28;;;;;;;8.32;6.13;;;14.30;99.90;;;;;;5031334;28;20021;-81
2022/09/06 01:41:56;;;;;;;6.82;5.22;;;14.30;99.90;;;;;;5031047;28;20040;-80
2022/09/06 01:44:27;;;;;;;9.57;5.35;;;14.30;99.90;;;;;;5024366;28;20033;-81
2022/09/06 01:47:30;;;;;;;9.60;6.00;;;14.30;99.90;;;;;;5033722;28;20021;-81
2022/09/06 01:50:24;;;;;;;8.98;5.93;;;14.30;99.90;;;;;;5029353;28;20032;-81
2022/09/06 01:53:14;;;;;;;7.47;5.50;;;14.30;99.90;;;;;;5038674;28;20040;-81
2022/09/06 01:55:58;;;;;;;7.93;5.13;;;14.30;99.90;;;;;;5050804;28;20049;-81
2022/09/06 01:58:36;;;;;;;7.40;5.13;;;14.20;99.90;;;;;;5050202;28;20036;-80
2022/09/06 02:01:21;;;;;;;8.02;5.65;;;14.20;99.90;;;;;;5036985;28;20033;-80
2022/09/06 02:04:02;;;;;;;8.50;5.90;;;14.20;99.90;;;;;;5036316;28;20497;-81
2022/09/06 02:06:39;;;;;;;9.13;5.38;;;14.20;99.90;;;;;;5050352;28;20029;-81
2022/09/06 02:09:09;;;;;;;6.80;5.60;;;14.20;99.90;;;;;;5050185;28;20100;-81
2022/09/06 02:11:48;;;;;;;9.77;5.32;;;14.20;99.90;;;;;;5049949;28;20021;-81
2022/09/06 02:14:19;;;;;;;7.97;5.82;;;14.20;99.90;;;;;;5049925;28;20128;-81
2022/09/06 02:16:48;;;;;;;9.70;5.43;;;14.20;99.90;;;;;;5049383;28;20029;-80
2022/09/06 02:19:25;;;;;;;7.15;5.50;;;14.20;99.90;;;;;;5036784;28;20428;-81
2022/09/06 02:21:53;;;;;;;8.52;5.85;;;14.20;99.90;;;;;;5048945;28;20033;-80
2022/09/06 02:24:22;;;;;;;6.45;5.68;;;14.20;99.90;;;;;;5036661;28;20373;-81
2022/09/06 02:26:49;;;;;;;10.43;5.30;;;14.10;99.90;;;;;;5049478;28;20458;-81
2022/09/06 02:29:16;;;;;;;7.43;4.82;;;14.20;99.90;;;;;;5043474;28;20018;-80
2022/09/06 02:31:54;;;;;;;7.15;5.07;;;14.10;99.90;;;;;;5041235;28;20021;-80
2022/09/06 02:34:20;;;;;;;8.68;5.43;;;14.10;99.90;;;;;;5048737;28;20025;-80
2022/09/06 02:36:47;;;;;;;7.03;4.85;;;14.00;99.90;;;;;;5048731;28;20036;-81
2022/09/06 02:39:13;;;;;;;5.82;5.07;;;14.00;99.90;;;;;;5049008;28;20382;-81
2022/09/06 02:41:45;;;;;;;9.40;5.30;;;14.00;99.90;;;;;;5049394;28;20025;-81
2022/09/06 02:44:10;;;;;;;7.43;4.90;;;14.00;99.90;;;;;;5049270;28;20413;-80
2022/09/06 02:46:36;;;;;;;7.80;5.40;;;14.00;99.90;;;;;;5049073;28;20406;-81
2022/09/06 02:49:02;;;;;;;7.70;5.10;;;14.00;99.90;;;;;;5048224;28;20032;-80
2022/09/06 02:51:28;;;;;;;9.35;5.22;;;13.90;99.90;;;;;;5043576;28;20022;-80
2022/09/06 02:53:53;;;;;;;6.78;5.18;;;13.90;99.90;;;;;;5040068;28;20025;-80
2022/09/06 02:56:19;;;;;;;8.30;5.18;;;13.90;99.90;;;;;;5048684;28;20056;-80
2022/09/06 02:58:44;;;;;;;7.15;4.72;;;13.80;99.90;;;;;;5048972;28;20029;-81
2022/09/06 03:01:11;;;;;;;8.77;5.63;;;13.80;99.90;;;;;;5048537;28;20037;-80
2022/09/06 03:03:36;;;;;;;7.65;5.20;;;13.80;99.90;;;;;;5049176;28;20025;-81
2022/09/06 03:06:02;;;;;;;5.53;5.00;;;13.80;99.90;;;;;;5048983;28;20029;-81
2022/09/06 03:08:32;;;;;;;7.40;5.40;;;13.80;99.90;;;;;;5029861;28;20022;-81
2022/09/06 03:10:58;;;;;;;7.95;6.00;;;13.80;99.90;;;;;;5040768;28;20459;-81
2022/09/06 03:13:25;;;;;;;7.47;5.75;;;13.70;99.90;;;;;;5048697;28;20017;-81
2022/09/06 03:15:52;;;;;;;9.90;5.70;;;13.70;99.90;;;;;;5049371;28;20559;-80
2022/09/06 03:18:18;;;;;;;6.45;4.95;;;13.70;99.90;;;;;;5034604;28;20041;-81
2022/09/06 03:20:44;;;;;;;6.60;5.03;;;13.70;99.90;;;;;;5048753;28;20444;-81
2022/09/06 03:23:09;;;;;;;7.13;5.18;;;13.70;99.90;;;;;;5048927;28;20403;-81
2022/09/06 03:25:35;;;;;;;6.72;4.70;;;13.70;99.90;;;;;;5048246;28;20089;-80
2022/09/06 03:28:02;;;;;;;10.43;5.38;;;13.70;99.90;;;;;;5046072;28;20108;-81
2022/09/06 03:30:29;;;;;;;7.72;5.15;;;13.60;99.90;;;;;;5028611;28;20134;-81
2022/09/06 03:32:54;;;;;;;6.43;5.10;;;13.60;99.90;;;;;;5028608;28;20030;-81
2022/09/06 03:35:20;;;;;;;7.10;4.93;;;13.60;99.90;;;;;;5028337;28;20457;-80
2022/09/06 03:37:45;;;;;;;8.43;4.80;;;13.60;99.90;;;;;;5028654;28;20041;-81
2022/09/06 03:40:11;;;;;;;5.78;4.80;;;13.60;99.90;;;;;;5028780;28;20036;-80
2022/09/06 03:42:36;;;;;;;7.07;5.00;;;13.60;99.90;;;;;;5028381;28;20039;-81
2022/09/06 03:45:02;;;;;;;7.30;5.05;;;13.60;99.90;;;;;;5036191;28;20119;-81
2022/09/06 03:47:28;;;;;;;8.25;4.47;;;13.60;99.90;;;;;;5042424;28;20021;-81
2022/09/06 03:49:53;;;;;;;6.15;5.22;;;13.60;99.90;;;;;;5042751;28;20482;-81
2022/09/06 03:52:19;;;;;;;11.20;4.70;;;13.50;99.90;;;;;;5029596;28;20069;-81
2022/09/06 03:54:44;;;;;;;8.25;5.10;;;13.50;99.90;;;;;;5045794;28;20061;-80
2022/09/06 03:57:10;;;;;;;6.07;4.60;;;13.50;99.90;;;;;;5047622;28;20060;-81
2022/09/06 03:59:36;;;;;;;8.02;4.68;;;13.40;99.90;;;;;;5031658;28;20056;-80
2022/09/06 04:02:01;;;;;;;9.23;4.70;;;13.40;99.90;;;;;;5036853;28;20064;-81
2022/09/06 04:04:27;;;;;;;8.27;4.93;;;13.40;99.90;;;;;;5033484;28;20497;-81
2022/09/06 04:06:52;;;;;;;7.22;5.32;;;13.40;99.90;;;;;;5047655;28;20064;-80
2022/09/06 04:09:18;;;;;;;8.48;5.13;;;13.40;99.90;;;;;;5048229;28;20095;-81
2022/09/06 04:11:44;;;;;;;6.82;4.72;;;13.40;99.90;;;;;;5047399;28;20381;-80
2022/09/06 04:14:09;;;;;;;4.65;4.07;;;13.30;99.90;;;;;;5038028;28;20026;-81
2022/09/06 04:16:35;;;;;;;8.18;4.90;;;13.40;99.90;;;;;;5043370;28;20028;-80
2022/09/06 04:19:01;;;;;;;12.82;4.93;;;13.30;99.90;;;;;;5047802;28;20029;-80
2022/09/06 04:21:27;;;;;;;8.85;5.07;;;13.30;99.90;;;;;;5047893;28;20462;-81
2022/09/06 04:23:52;;;;;;;7.22;4.65;;;13.30;99.90;;;;;;5047471;28;20029;-81
2022/09/06 04:26:18;;;;;;;9.77;4.75;;;13.30;99.90;;;;;;5048558;28;20028;-81
2022/09/06 04:28:45;;;;;;;6.80;4.55;;;13.20;99.90;;;;;;5047366;28;20025;-80
2022/09/06 04:31:11;;;;;;;9.65;5.10;;;13.20;99.90;;;;;;5047751;28;20056;-81
2022/09/06 04:33:37;;;;;;;8.48;4.95;;;13.20;99.90;;;;;;5045508;28;20117;-80
2022/09/06 04:36:05;;;;;;;8.88;4.88;;;13.30;99.90;;;;;;5035562;28;20459;-80
2022/09/06 04:38:38;;;;;;;8.38;5.32;;;13.30;99.90;;;;;;5048377;28;20048;-81
2022/09/06 04:41:04;;;;;;;7.85;5.18;;;13.20;99.90;;;;;;5047356;28;20066;-81
2022/09/06 04:43:30;;;;;;;7.47;4.97;;;13.20;99.90;;;;;;5047714;28;20032;-81
2022/09/06 04:46:02;;;;;;;7.43;4.68;;;13.20;99.90;;;;;;5048232;28;20032;-80
2022/09/06 04:48:27;;;;;;;7.28;4.60;;;13.20;99.90;;;;;;5047357;28;20037;-81
2022/09/06 04:50:53;;;;;;;8.77;4.78;;;13.20;99.90;;;;;;5046973;28;20036;-80
2022/09/06 04:53:18;;;;;;;9.80;4.25;;;13.20;99.90;;;;;;5034443;28;20037;-80
2022/09/06 04:55:44;;;;;;;8.50;4.63;;;13.20;99.90;;;;;;5047714;28;20498;-80
2022/09/06 04:58:09;;;;;;;9.32;4.93;;;13.20;99.90;;;;;;5047034;28;20025;-81
2022/09/06 05:00:37;;;;;;;10.02;5.60;;;13.30;99.90;;;;;;5048223;28;20035;-81
2022/09/06 05:03:03;;;;;;;6.55;4.88;;;13.30;99.90;;;;;;5043427;28;20677;-81
2022/09/06 05:05:28;;;;;;;8.68;4.95;;;13.30;99.90;;;;;;5034826;28;20072;-81
2022/09/06 05:07:55;;;;;;;9.73;5.20;;;13.30;99.90;;;;;;5039846;28;20029;-81
2022/09/06 05:10:21;;;;;;;7.60;4.88;;;13.40;99.90;;;;;;5043738;28;20409;-81
2022/09/06 05:12:48;;;;;;;8.57;5.05;;;13.40;99.90;;;;;;5036367;28;20414;-80
2022/09/06 05:15:14;;;;;;;7.53;4.55;;;13.40;99.90;;;;;;5041638;28;20029;-81
2022/09/06 05:17:40;;;;;;;8.73;4.75;;;13.50;99.90;;;;;;5050106;28;20036;-81
2022/09/06 05:20:06;;;;;;;7.85;4.72;;;13.50;99.90;;;;;;5033836;28;20041;-81
2022/09/06 05:22:32;;;;;;;8.38;4.78;;;13.50;99.90;;;;;;5039035;28;20034;-81
2022/09/06 05:24:57;;;;;;;10.25;4.80;;;13.60;99.90;;;;;;5031112;28;20362;-81
2022/09/06 05:27:23;;;;;;;7.93;5.20;;;13.60;99.90;;;;;;5029401;28;20375;-81
2022/09/06 05:29:48;;;;;;;7.03;5.00;;;13.60;99.90;;;;;;5038760;28;20172;-80
2022/09/06 05:32:14;;;;;;;6.78;4.68;;;13.70;99.90;;;;;;5044861;28;20034;-81
2022/09/06 05:34:39;;;;;;;5.97;4.78;;;13.70;99.90;;;;;;5040583;28;20040;-80
2022/09/06 05:37:05;;;;;;;6.72;5.00;;;13.80;99.90;;;;;;5030582;28;20046;-81
2022/09/06 05:39:30;;;;;;;8.68;4.97;;;13.90;99.90;;;;;;5030125;28;20496;-80
2022/09/06 05:41:56;;;;;;;5.80;4.90;;;14.00;99.90;;;;;;5031158;28;20116;-80
2022/09/06 05:44:22;;;;;;;9.05;5.05;;;14.10;99.90;;;;;;5031101;28;20108;-80
2022/09/06 05:46:47;;;;;;;8.02;5.05;;;14.20;99.90;;;;;;5030714;28;20658;-80
2022/09/06 05:49:13;;;;;;;9.30;5.75;;;14.30;99.90;;;;;;5030504;28;20025;-80
2022/09/06 05:51:39;;;;;;;11.13;5.47;;;14.40;99.90;;;;;;5030731;28;20489;-81
2022/09/06 05:54:05;;;;;;;11.45;5.57;;;14.40;99.90;;;;;;5043421;28;20155;-80
2022/09/06 05:56:30;;;;;;;8.68;5.07;;;14.50;99.90;;;;;;5050534;28;20132;-80
2022/09/06 05:58:56;;;;;;;7.53;5.22;;;14.60;99.90;;;;;;5039371;28;20037;-80
2022/09/06 06:01:27;;;;;;;8.40;5.13;;;14.60;99.90;;;;;;5033624;28;20040;-80
2022/09/06 06:03:55;;;;;;;5.30;4.80;;;14.60;99.90;;;;;;5029862;28;20033;-80
2022/09/06 06:06:22;;;;;;;8.23;5.13;;;14.70;99.90;;;;;;5035406;28;20032;-80
2022/09/06 06:08:48;;;;;;;7.43;5.10;;;14.80;99.90;;;;;;5029644;28;20033;-80
2022/09/06 06:11:15;;;;;;;7.90;4.97;;;15.00;99.90;;;;;;5030032;28;20017;-80
2022/09/06 06:13:42;;;;;;;11.38;6.72;;;15.10;99.90;;;;;;5030604;28;20071;-80
2022/09/06 06:16:10;;;;;;;9.45;5.00;;;15.30;99.90;;;;;;5029384;28;20026;-80
2022/09/06 06:18:35;;;;;;;13.70;5.32;;;15.50;99.90;;;;;;5029048;28;20155;-80
2022/09/06 06:21:14;;;;;;;9.50;4.85;;;15.60;99.90;;;;;;5029286;28;20105;-80
2022/09/06 06:23:42;;;;;;;9.13;4.93;;;15.90;99.90;;;;;;5027953;28;20018;-80
2022/09/06 06:26:09;;;;;;;10.07;4.90;;;16.00;99.90;;;;;;5029414;28;20132;-80
2022/09/06 06:28:35;;;;;;;7.35;5.00;;;16.20;99.90;;;;;;5032567;28;20034;-80
2022/09/06 06:31:02;;;;;;;11.25;4.70;;;16.30;99.90;;;;;;5030037;28;20032;-80
2022/09/06 06:33:28;;;;;;;8.38;4.72;;;16.40;99.90;;;;;;5029678;28;20026;-80
2022/09/06 06:36:02;;;;;;;6.85;4.30;;;16.50;99.90;;;;;;5030004;28;20389;-80
2022/09/06 06:38:32;;;;;;;10.48;5.28;;;16.60;99.90;;;;;;5029378;28;20018;-80
2022/09/06 06:40:59;;;;;;;10.38;4.93;;;16.70;99.90;;;;;;5029106;28;20033;-80
2022/09/06 06:43:25;;;;;;;8.77;4.97;;;16.80;99.90;;;;;;5028268;28;20493;-80
2022/09/06 06:45:50;;;;;;;4.57;3.50;;;17.00;99.90;;;;;;5030099;28;20029;-80
2022/09/06 06:48:16;;;;;;;7.68;4.30;;;17.20;99.90;;;;;;5029221;28;20428;-80
2022/09/06 06:50:41;;;;;;;9.48;4.03;;;17.40;99.90;;;;;;5029779;28;20522;-80
2022/09/06 06:53:07;;;;;;;9.13;3.95;;;17.60;99.90;;;;;;5048021;28;20075;-80
2022/09/06 06:55:32;;;;;;;6.85;3.58;;;17.80;99.90;;;;;;5048737;28;20512;-81
2022/09/06 06:57:59;;;;;;;7.18;3.70;;;17.90;99.90;;;;;;5035076;28;20441;-80
2022/09/06 07:00:25;;;;;;;5.75;4.20;;;18.00;99.90;;;;;;5048563;28;20033;-81
2022/09/06 07:02:51;;;;;;;7.72;4.03;;;18.10;99.90;;;;;;5048729;28;20037;-81
2022/09/06 07:05:17;;;;;;;7.72;4.22;;;18.30;99.90;;;;;;5042102;28;20028;-80
2022/09/06 07:07:42;;;;;;;4.90;3.30;;;18.30;99.90;;;;;;5041516;28;20041;-81
2022/09/06 07:10:08;;;;;;;5.55;2.95;;;18.30;99.90;;;;;;5049264;28;20432;-80
2022/09/06 07:12:34;;;;;;;5.45;3.13;;;18.40;99.90;;;;;;5048505;28;20541;-76
2022/09/06 07:14:59;;;;;;;6.50;2.90;;;18.40;99.90;;;;;;5047784;28;20390;-75
2022/09/06 07:17:25;;;;;;;5.60;3.17;;;18.50;99.90;;;;;;5047472;28;20525;-75
2022/09/06 07:19:50;;;;;;;9.98;3.05;;;18.50;99.90;;;;;;5033815;28;20138;-80
2022/09/06 07:22:16;;;;;;;7.45;2.85;;;18.60;99.90;;;;;;5030811;28;20033;-81
2022/09/06 07:24:41;;;;;;;5.00;2.67;;;18.70;99.90;;;;;;5037605;28;20482;-80
2022/09/06 07:27:07;;;;;;;5.93;2.88;;;18.70;99.90;;;;;;5039234;28;20560;-80
2022/09/06 07:29:33;;;;;;;5.95;3.03;;;18.70;99.90;;;;;;5034392;28;20497;-80
2022/09/06 07:31:59;;;;;;;5.55;2.83;;;18.70;99.90;;;;;;5028030;28;20037;-80
2022/09/06 07:34:24;;;;;;;6.07;2.95;;;18.70;99.90;;;;;;5026803;28;20025;-81
2022/09/06 07:36:54;;;;;;;8.15;3.80;;;18.60;99.90;;;;;;5028609;28;20062;-80
2022/09/06 07:39:20;;;;;;;8.60;3.30;;;18.60;99.90;;;;;;5031888;28;20064;-81
2022/09/06 07:41:46;;;;;;;10.52;3.78;;;18.50;99.90;;;;;;5031341;28;20061;-81
2022/09/06 07:44:11;;;;;;;4.43;2.72;;;18.40;99.90;;;;;;5031925;28;20057;-81
2022/09/06 07:46:37;;;;;;;9.15;2.97;;;18.50;99.90;;;;;;5031082;28;20025;-81
2022/09/06 07:49:04;;;;;;;9.18;3.22;;;18.40;99.90;;;;;;5031162;28;20045;-80
2022/09/06 07:51:30;;;;;;;5.80;3.13;;;18.40;99.90;;;;;;5029899;28;20021;-80
2022/09/06 07:53:56;;;;;;;6.03;2.63;;;18.40;99.90;;;;;;5041517;28;20033;-80
2022/09/06 07:56:22;;;;;;;9.30;2.70;;;18.50;99.90;;;;;;5049507;28;20456;-80
2022/09/06 07:58:49;;;;;;;7.15;3.08;;;18.50;99.90;;;;;;5048794;28;20033;-80
2022/09/06 08:01:26;;;;;;;4.90;2.88;;;18.50;99.90;;;;;;5047090;28;20449;-80
2022/09/06 08:03:53;;;;;;;7.60;2.67;;;18.50;99.90;;;;;;5049385;28;20040;-80
2022/09/06 08:06:20;;;;;;;5.93;2.72;;;18.60;99.90;;;;;;5047803;28;20029;-80
2022/09/06 08:08:45;;;;;;;4.40;2.17;;;18.70;99.90;;;;;;5036403;28;20118;-80
2022/09/06 08:11:11;;;;;;;6.25;2.40;;;18.90;99.90;;;;;;5035895;28;20021;-80
2022/09/06 08:13:37;;;;;;;6.70;2.40;;;18.90;99.90;;;;;;5048709;28;20025;-80
2022/09/06 08:16:05;;;;;;;5.93;2.40;;;19.20;99.90;;;;;;5049122;28;20032;-80
2022/09/06 08:18:31;;;;;;;7.40;2.22;;;19.30;99.90;;;;;;5048817;28;20044;-80
2022/09/06 08:21:09;;;;;;;6.32;2.08;;;19.40;99.90;;;;;;5049290;28;20060;-80
2022/09/06 08:23:36;;;;;;;5.57;2.20;;;19.50;99.90;;;;;;5034048;28;20093;-80
2022/09/06 08:26:01;;;;;;;5.07;2.40;;;19.70;99.90;;;;;;5037916;28;20029;-80
2022/09/06 08:28:27;;;;;;;7.43;2.80;;;19.90;99.90;;;;;;5043747;28;20025;-79
2022/09/06 08:30:53;;;;;;;6.93;2.50;;;19.90;99.90;;;;;;5040679;28;20053;-80
2022/09/06 08:33:24;;;;;;;5.20;2.33;;;19.90;99.90;;;;;;5027514;28;20037;-80
2022/09/06 08:35:57;;;;;;;5.60;2.88;;;20.10;99.90;;;;;;5027864;28;20056;-80
2022/09/06 08:38:23;;;;;;;4.45;2.00;;;20.20;99.90;;;;;;5028891;28;20025;-80
2022/09/06 08:40:50;;;;;;;3.30;1.77;;;20.30;99.90;;;;;;5027822;28;20037;-80
2022/09/06 08:43:20;;;;;;;3.25;2.00;;;20.30;99.90;;;;;;5017858;28;20033;-80
2022/09/06 08:45:56;;;;;;;6.53;2.60;;;20.40;99.90;;;;;;5027761;28;20112;-79
2022/09/06 08:48:26;;;;;;;7.55;2.28;;;20.50;99.90;;;;;;5032103;28;20021;-80
2022/09/06 08:51:30;;;;;;;4.30;2.15;;;20.50;99.90;;;;;;5033000;28;20053;-80
2022/09/06 08:54:02;;;;;;;10.52;2.25;;;20.70;99.90;;;;;;5037556;28;20069;-80
2022/09/06 08:56:53;;;;;;;3.53;1.90;;;20.80;99.90;;;;;;5050740;28;20886;-80
2022/09/06 08:59:19;;;;;;;7.75;1.92;;;20.80;99.90;;;;;;5052211;28;20110;-80
2022/09/06 09:02:03;;;;;;;6.40;1.85;;;20.90;99.90;;;;;;5052832;28;20116;-81
2022/09/06 09:04:30;;;;;;;7.37;1.80;;;21.00;99.90;;;;;;5052509;28;20029;-80
2022/09/06 09:07:10;;;;;;;3.17;1.50;;;21.00;99.90;;;;;;5040155;28;20050;-80
2022/09/06 09:09:36;;;;;;;4.88;1.98;;;20.90;99.90;;;;;;5046275;28;20043;-79
2022/09/06 09:12:02;;;;;;;4.22;1.77;;;20.90;99.90;;;;;;5051805;28;20021;-80
2022/09/06 09:14:34;;;;;;;4.75;2.03;;;20.90;99.90;;;;;;5040008;28;20026;-80
2022/09/06 09:17:10;;;;;;;6.60;1.80;;;20.80;99.90;;;;;;5037582;28;20021;-80
2022/09/06 09:19:36;;;;;;;6.95;2.10;;;20.90;99.90;;;;;;5042815;28;20051;-80
2022/09/06 09:22:02;;;;;;;6.35;2.25;;;21.10;99.90;;;;;;5050592;28;20021;-80
2022/09/06 09:24:30;;;;;;;5.18;1.60;;;21.50;99.90;;;;;;5043107;28;20040;-80
2022/09/06 09:27:10;;;;;;;3.35;1.40;;;21.80;99.90;;;;;;5036704;28;20033;-80
2022/09/06 09:29:53;;;;;;;5.75;1.73;;;22.30;99.90;;;;;;5038921;28;20025;-80
2022/09/06 09:32:34;;;;;;;5.03;1.50;;;22.60;99.90;;;;;;5024460;28;20037;-80
2022/09/06 09:35:29;;;;;;;7.20;1.50;;;23.00;99.90;;;;;;5031445;28;20029;-80
2022/09/06 09:38:09;;;;;;;5.50;1.50;;;23.30;99.90;;;;;;5039809;28;20352;-80
2022/09/06 09:40:48;;;;;;;4.55;1.48;;;23.60;99.90;;;;;;5038134;28;20033;-81
2022/09/06 09:43:22;;;;;;;5.63;1.52;;;23.90;99.90;;;;;;5046888;28;20132;-80
2022/09/06 09:46:06;;;;;;;;;;;24.20;99.90;;;;;;5036875;28;20026;-80
2022/09/06 09:48:32;;;;;;;4.80;1.42;;;24.40;99.90;;;;;;5033805;28;19936;-80
2022/09/06 09:51:19;;;;;;;7.05;1.70;;;24.50;99.90;;;;;;5032464;28;20065;-80
2022/09/06 09:53:52;;;;;;;3.22;1.13;;;24.80;99.90;;;;;;5032807;28;20021;-80
2022/09/06 09:56:36;;;;;;;3.75;1.27;;;25.00;99.90;;;;;;5040721;28;20074;-80
2022/09/06 09:59:14;;;;;;;2.70;1.08;;;25.10;99.90;;;;;;5034709;28;20095;-80
2022/09/06 10:01:39;;;;;;;4.13;1.30;;;25.40;99.90;;;;;;5036230;28;20060;-80
2022/09/06 10:04:08;;;;;;;3.83;1.30;;;25.50;99.90;;;;;;5042012;28;20079;-80
2022/09/06 10:06:34;;;;;;;8.68;1.60;;;25.50;99.90;;;;;;5040114;28;20064;-80
2022/09/06 10:09:17;;;;;;;5.18;1.10;;;25.70;99.90;;;;;;5042408;28;20049;-81
2022/09/06 10:11:56;;;;;;;4.13;1.15;;;25.90;99.90;;;;;;5048513;28;20021;-80
2022/09/06 10:14:43;;;;;;;6.65;1.73;;;26.10;99.90;;;;;;5038601;28;20029;-80
2022/09/06 10:17:25;;;;;;;3.60;1.52;;;26.20;99.90;;;;;;5037226;28;20402;-80
2022/09/06 10:19:52;;;;;;;2.75;1.45;;;26.30;99.90;;;;;;5034279;28;20061;-80
2022/09/06 10:22:35;;;;;;;2.88;1.30;;;26.40;99.90;;;;;;5040973;28;20037;-80
2022/09/06 10:25:22;;;;;;;6.53;1.60;;;26.70;99.90;;;;;;5030874;28;20036;-80
2022/09/06 10:28:06;;;;;;;4.05;1.52;;;26.90;99.90;;;;;;5030199;28;20032;-80
2022/09/06 10:30:39;;;;;;;2.90;1.10;;;27.10;99.90;;;;;;5035912;28;20022;-81
2022/09/06 10:33:17;;;;;;;5.57;1.60;;;27.00;99.90;;;;;;5030605;28;20029;-81
2022/09/06 10:35:43;;;;;;;5.03;1.75;;;27.30;99.90;;;;;;5037164;28;20057;-80
2022/09/06 10:38:23;;;;;;;7.57;1.60;;;27.40;99.90;;;;;;5030214;28;20059;-80
2022/09/06 10:41:24;;;;;;;2.75;1.40;;;27.30;99.90;;;;;;5030543;28;20033;-81
2022/09/06 10:43:56;;;;;;;6.45;1.75;;;27.40;99.90;;;;;;5026865;28;20044;-80
2022/09/06 10:46:25;;;;;;;4.25;1.63;;;27.70;99.90;;;;;;5036258;28;20026;-80
2022/09/06 10:48:52;;;;;;;7.55;1.90;;;27.90;99.90;;;;;;5029722;28;20517;-80
2022/09/06 10:51:27;;;;;;;5.78;1.70;;;28.10;99.90;;;;;;5033625;28;20072;-81
2022/09/06 10:54:00;;;;;;;8.00;1.95;;;28.20;99.90;;;;;;5047692;28;20040;-80
2022/09/06 10:56:38;;;;;;;7.22;2.03;;;28.50;99.90;;;;;;5033012;28;20046;-81
2022/09/06 10:59:29;;;;;;;7.28;1.77;;;28.50;99.90;;;;;;5030565;28;20466;-81
2022/09/06 11:02:17;;;;;;;6.80;1.73;;;28.30;99.90;;;;;;5026276;28;20087;-80
2022/09/06 11:04:45;;;;;;;7.53;1.60;;;28.20;99.90;;;;;;5033209;28;20037;-82
2022/09/06 11:07:31;;;;;;;7.38;1.75;;;28.30;99.90;;;;;;5050548;28;20043;-81
2022/09/06 11:10:15;;;;;;;5.13;1.70;;;28.10;99.90;;;;;;5044082;28;20028;-81
2022/09/06 11:12:48;;;;;;;8.60;2.15;;;28.30;99.90;;;;;;5046099;28;20036;-82
2022/09/06 11:15:15;;;;;;;7.65;1.70;;;28.30;99.90;;;;;;5030486;28;20112;-82
2022/09/06 11:17:59;;;;;;;6.30;1.40;;;28.50;99.90;;;;;;5038126;28;20536;-81
2022/09/06 11:20:43;;;;;;;10.57;2.22;;;28.50;99.90;;;;;;5040051;28;20029;-81
2022/09/06 11:23:41;;;;;;;6.50;1.67;;;28.70;99.90;;;;;;5037615;28;20060;-81
2022/09/06 11:26:28;;;;;;;5.32;1.67;;;28.90;99.90;;;;;;5029981;28;20030;-81
2022/09/06 11:28:58;;;;;;;6.43;1.63;;;28.90;99.90;;;;;;5043829;28;20028;-81
2022/09/06 11:31:27;;;;;;;6.82;2.13;;;28.90;99.90;;;;;;5036671;28;20037;-81
2022/09/06 11:34:18;;;;;;;6.95;2.30;;;29.00;99.90;;;;;;5037342;28;20035;-82
2022/09/06 11:37:01;;;;;;;4.53;1.60;;;29.00;99.90;;;;;;5034316;28;20037;-82
2022/09/06 11:39:37;;;;;;;5.53;1.63;;;29.00;99.90;;;;;;5028312;28;20029;-82
2022/09/06 11:42:28;;;;;;;11.88;2.17;;;29.20;99.90;;;;;;5028527;28;20031;-81
2022/09/06 11:44:56;;;;;;;6.03;2.05;;;29.20;99.90;;;;;;5018910;28;20112;-81
2022/09/06 11:47:40;;;;;;;12.55;2.20;;;29.60;99.90;;;;;;5027949;28;20026;-82
2022/09/06 11:50:23;;;;;;;4.60;1.80;;;30.00;99.90;;;;;;5028440;28;20021;-82
2022/09/06 11:53:04;;;;;;;6.47;1.80;;;30.20;99.90;;;;;;5029754;28;20108;-82
2022/09/06 11:55:35;;;;;;;6.47;1.70;;;30.20;99.90;;;;;;5041013;28;20077;-82
2022/09/06 11:58:04;;;;;;;7.10;1.80;;;30.20;99.90;;;;;;5042723;28;20114;-82
2022/09/06 12:00:31;;;;;;;9.65;2.10;;;30.10;99.90;;;;;;5043171;28;20034;-81
2022/09/06 12:02:56;;;;;;;6.22;1.90;;;30.10;99.90;;;;;;5036606;28;20056;-81
2022/09/06 12:05:30;;;;;;;12.40;2.38;;;29.90;99.90;;;;;;5048128;28;20024;-81
2022/09/06 12:08:17;;;;;;;8.13;1.92;;;29.90;99.90;;;;;;5042943;28;20394;-82
2022/09/06 12:11:27;;;;;;;6.68;1.83;;;30.00;99.90;;;;;;5037428;28;20044;-82
2022/09/06 12:13:56;;;;;;;9.20;1.80;;;30.10;99.90;;;;;;5017613;28;20056;-82
2022/09/06 12:16:22;;;;;;;8.30;2.00;;;30.30;99.90;;;;;;5047322;28;20048;-82
2022/09/06 12:18:48;;;;;;;6.47;2.00;;;30.20;99.90;;;;;;5040471;28;20136;-81
2022/09/06 12:21:35;;;;;;;8.35;2.05;;;30.40;99.90;;;;;;5028962;28;20112;-81
2022/09/06 12:24:01;;;;;;;11.63;2.78;;;30.60;99.90;;;;;;5029011;28;20476;-82
2022/09/06 12:26:51;;;;;;;14.05;2.72;;;30.40;99.90;;;;;;5038502;28;20036;-82
2022/09/06 12:29:25;;;;;;;9.48;1.92;;;30.50;99.90;;;;;;5032711;28;20163;-82
2022/09/06 12:31:53;;;;;;;9.73;2.05;;;30.80;99.90;;;;;;5029012;28;20036;-81
2022/09/06 12:34:25;;;;;;;7.78;1.80;;;31.00;99.90;;;;;;5027387;28;20445;-82
2022/09/06 12:37:03;;;;;;;9.23;2.22;;;31.30;99.90;;;;;;5027225;28;20065;-82
2022/09/06 12:39:29;;;;;;;9.68;2.17;;;31.60;99.90;;;;;;5027724;28;20017;-82
2022/09/06 12:42:02;;;;;;;6.45;2.10;;;31.40;99.90;;;;;;5027515;28;20029;-81
2022/09/06 12:44:46;;;;;;;8.18;2.13;;;31.20;99.90;;;;;;5027621;28;20076;-82
2022/09/06 12:47:14;;;;;;;8.10;2.70;;;31.00;99.90;;;;;;5027421;28;20029;-81
2022/09/06 12:49:40;;;;;;;8.02;1.95;;;30.40;99.90;;;;;;5026952;28;20029;-82
2022/09/06 12:52:14;;;;;;;14.00;2.50;;;29.70;99.90;;;;;;5027473;28;20029;-82
2022/09/06 12:54:46;;;;;;;11.90;2.65;;;29.20;99.90;;;;;;5044225;28;20031;-82
2022/09/06 12:57:23;;;;;;;8.07;2.17;;;28.70;99.90;;;;;;5040983;28;20064;-82
2022/09/06 12:59:53;;;;;;;9.02;2.38;;;28.30;99.90;;;;;;5039266;28;20044;-81
2022/09/06 13:02:36;;;;;;;12.32;2.95;;;28.00;99.90;;;;;;5028372;28;20084;-81
2022/09/06 13:05:07;;;;;;;9.93;2.67;;;27.90;99.90;;;;;;5041293;28;20029;-81